sensor_id;sensor_type;location;lat;lon;timestamp;pressure;altitude;pressure_sealevel;temperature;humidity
75629;BME280;64213;46.452;16.994;2024-02-16T00:02:29;100424.94;;;6.72;80.85
75629;BME280;64213;46.452;16.994;2024-02-16T00:05:32;100434.72;;;6.69;80.91
75629;BME280;64213;46.452;16.994;2024-02-16T00:08:35;100430.31;;;6.69;81.05
75629;BME280;64213;46.452;16.994;2024-02-16T00:11:41;100437.44;;;6.67;80.96
75629;BME280;64213;46.452;16.994;2024-02-16T00:14:44;100429.59;;;6.66;81.22
75629;BME280;64213;46.452;16.994;2024-02-16T00:17:48;100415.94;;;6.58;81.59
75629;BME280;64213;46.452;16.994;2024-02-16T00:20:51;100419.91;;;6.46;82.34
75629;BME280;64213;46.452;16.994;2024-02-16T00:23:54;100417.53;;;6.40;82.43
75629;BME280;64213;46.452;16.994;2024-02-16T00:26:57;100424.97;;;6.28;82.73
75629;BME280;64213;46.452;16.994;2024-02-16T00:30:00;100416.91;;;6.11;83.46
75629;BME280;64213;46.452;16.994;2024-02-16T00:33:05;100419.28;;;5.95;84.53
75629;BME280;64213;46.452;16.994;2024-02-16T00:36:09;100418.75;;;5.86;85.91
75629;BME280;64213;46.452;16.994;2024-02-16T00:39:12;100424.94;;;5.85;85.80
75629;BME280;64213;46.452;16.994;2024-02-16T00:42:15;100424.59;;;5.70;86.19
75629;BME280;64213;46.452;16.994;2024-02-16T00:45:17;100426.81;;;5.57;86.40
75629;BME280;64213;46.452;16.994;2024-02-16T00:48:20;100427.25;;;5.45;87.28
75629;BME280;64213;46.452;16.994;2024-02-16T00:51:23;100429.47;;;5.32;88.40
75629;BME280;64213;46.452;16.994;2024-02-16T00:54:28;100425.34;;;5.27;89.00
75629;BME280;64213;46.452;16.994;2024-02-16T00:57:31;100427.22;;;5.23;88.67
75629;BME280;64213;46.452;16.994;2024-02-16T01:00:35;100435.41;;;5.14;89.19
75629;BME280;64213;46.452;16.994;2024-02-16T01:03:38;100430.47;;;5.05;89.68
75629;BME280;64213;46.452;16.994;2024-02-16T01:06:41;100429.78;;;5.00;90.14
75629;BME280;64213;46.452;16.994;2024-02-16T01:09:43;100427.59;;;5.12;90.45
75629;BME280;64213;46.452;16.994;2024-02-16T01:12:45;100422.66;;;5.28;89.09
75629;BME280;64213;46.452;16.994;2024-02-16T01:15:48;100424.03;;;5.13;89.18
75629;BME280;64213;46.452;16.994;2024-02-16T01:18:50;100425.34;;;5.27;89.07
75629;BME280;64213;46.452;16.994;2024-02-16T01:21:53;100419.87;;;5.33;88.34
75629;BME280;64213;46.452;16.994;2024-02-16T01:24:59;100411.31;;;5.28;88.40
75629;BME280;64213;46.452;16.994;2024-02-16T01:28:02;100414.22;;;5.20;89.19
75629;BME280;64213;46.452;16.994;2024-02-16T01:31:05;100408.59;;;5.06;89.34
75629;BME280;64213;46.452;16.994;2024-02-16T01:34:07;100417.47;;;5.02;89.97
75629;BME280;64213;46.452;16.994;2024-02-16T01:37:10;100408.16;;;5.18;89.33
75629;BME280;64213;46.452;16.994;2024-02-16T01:40:13;100411.91;;;5.11;89.25
75629;BME280;64213;46.452;16.994;2024-02-16T01:43:20;100410.78;;;4.93;89.87
75629;BME280;64213;46.452;16.994;2024-02-16T01:46:23;100414.56;;;4.84;90.49
75629;BME280;64213;46.452;16.994;2024-02-16T01:49:25;100412.38;;;4.72;90.79
75629;BME280;64213;46.452;16.994;2024-02-16T01:52:29;100412.72;;;4.63;91.28
75629;BME280;64213;46.452;16.994;2024-02-16T01:55:33;100407.97;;;4.48;91.74
75629;BME280;64213;46.452;16.994;2024-02-16T01:58:35;100414.25;;;4.42;92.39
75629;BME280;64213;46.452;16.994;2024-02-16T02:01:38;100408.28;;;4.38;93.25
75629;BME280;64213;46.452;16.994;2024-02-16T02:04:40;100399.75;;;4.32;93.27
75629;BME280;64213;46.452;16.994;2024-02-16T02:07:44;100393.88;;;4.25;93.15
75629;BME280;64213;46.452;16.994;2024-02-16T02:10:46;100401.09;;;4.17;93.72
75629;BME280;64213;46.452;16.994;2024-02-16T02:13:48;100395.28;;;4.09;94.39
75629;BME280;64213;46.452;16.994;2024-02-16T02:16:51;100390.91;;;4.08;95.52
75629;BME280;64213;46.452;16.994;2024-02-16T02:20:00;100389.31;;;4.04;95.41
75629;BME280;64213;46.452;16.994;2024-02-16T02:23:04;100398.34;;;3.93;95.22
75629;BME280;64213;46.452;16.994;2024-02-16T02:26:07;100389.00;;;3.86;95.46
75629;BME280;64213;46.452;16.994;2024-02-16T02:29:09;100393.50;;;3.81;95.75
75629;BME280;64213;46.452;16.994;2024-02-16T02:32:12;100386.75;;;3.74;96.25
75629;BME280;64213;46.452;16.994;2024-02-16T02:35:16;100385.09;;;3.70;96.41
75629;BME280;64213;46.452;16.994;2024-02-16T02:38:20;100390.44;;;3.67;96.87
75629;BME280;64213;46.452;16.994;2024-02-16T02:41:22;100388.81;;;3.63;97.44
75629;BME280;64213;46.452;16.994;2024-02-16T02:44:25;100390.81;;;3.55;97.46
75629;BME280;64213;46.452;16.994;2024-02-16T02:47:27;100398.75;;;3.52;97.92
75629;BME280;64213;46.452;16.994;2024-02-16T02:50:30;100398.03;;;3.46;98.81
75629;BME280;64213;46.452;16.994;2024-02-16T02:53:33;100396.31;;;3.45;99.55
75629;BME280;64213;46.452;16.994;2024-02-16T02:56:36;100390.31;;;3.42;99.14
75629;BME280;64213;46.452;16.994;2024-02-16T03:04:05;100385.84;;;3.45;99.46
75629;BME280;64213;46.452;16.994;2024-02-16T03:07:08;100391.09;;;3.45;99.48
75629;BME280;64213;46.452;16.994;2024-02-16T03:10:11;100387.56;;;3.46;99.75
75629;BME280;64213;46.452;16.994;2024-02-16T03:13:13;100388.28;;;3.52;99.80
75629;BME280;64213;46.452;16.994;2024-02-16T03:16:20;100386.28;;;3.60;100.00
75629;BME280;64213;46.452;16.994;2024-02-16T03:19:22;100384.62;;;3.57;99.88
75629;BME280;64213;46.452;16.994;2024-02-16T03:22:25;100390.81;;;3.55;99.57
75629;BME280;64213;46.452;16.994;2024-02-16T03:25:28;100393.66;;;3.47;99.39
75629;BME280;64213;46.452;16.994;2024-02-16T03:28:30;100388.38;;;3.48;99.86
75629;BME280;64213;46.452;16.994;2024-02-16T03:31:33;100393.72;;;3.44;99.80
75629;BME280;64213;46.452;16.994;2024-02-16T03:34:36;100398.19;;;3.40;99.55
75629;BME280;64213;46.452;16.994;2024-02-16T03:37:38;100398.38;;;3.34;99.78
75629;BME280;64213;46.452;16.994;2024-02-16T03:40:41;100408.91;;;3.31;100.00
75629;BME280;64213;46.452;16.994;2024-02-16T03:43:43;100394.28;;;3.25;100.00
75629;BME280;64213;46.452;16.994;2024-02-16T03:46:45;100398.78;;;3.19;100.00
75629;BME280;64213;46.452;16.994;2024-02-16T03:49:48;100405.84;;;3.17;100.00
75629;BME280;64213;46.452;16.994;2024-02-16T03:52:51;100406.22;;;3.34;100.00
75629;BME280;64213;46.452;16.994;2024-02-16T03:55:53;100405.63;;;3.54;100.00
75629;BME280;64213;46.452;16.994;2024-02-16T03:58:55;100405.44;;;3.60;99.68
75629;BME280;64213;46.452;16.994;2024-02-16T04:01:58;100415.88;;;3.62;99.55
75629;BME280;64213;46.452;16.994;2024-02-16T04:05:00;100415.66;;;3.69;99.56
75629;BME280;64213;46.452;16.994;2024-02-16T04:08:03;100410.91;;;3.82;99.26
75629;BME280;64213;46.452;16.994;2024-02-16T04:11:07;100411.19;;;3.73;98.86
75629;BME280;64213;46.452;16.994;2024-02-16T04:14:10;100410.69;;;3.60;98.70
75629;BME280;64213;46.452;16.994;2024-02-16T04:17:13;100414.53;;;3.48;98.81
75629;BME280;64213;46.452;16.994;2024-02-16T04:20:15;100413.87;;;3.40;99.13
75629;BME280;64213;46.452;16.994;2024-02-16T04:23:18;100424.50;;;3.34;99.71
75629;BME280;64213;46.452;16.994;2024-02-16T04:26:21;100428.03;;;3.33;100.00
75629;BME280;64213;46.452;16.994;2024-02-16T04:29:23;100424.75;;;3.26;100.00
75629;BME280;64213;46.452;16.994;2024-02-16T04:32:25;100426.69;;;3.20;99.97
75629;BME280;64213;46.452;16.994;2024-02-16T04:35:28;100427.63;;;3.16;100.00
75629;BME280;64213;46.452;16.994;2024-02-16T04:38:30;100417.31;;;3.11;100.00
75629;BME280;64213;46.452;16.994;2024-02-16T04:41:32;100417.41;;;3.08;100.00
75629;BME280;64213;46.452;16.994;2024-02-16T04:44:38;100427.00;;;3.08;100.00
75629;BME280;64213;46.452;16.994;2024-02-16T04:47:40;100426.25;;;3.02;100.00
75629;BME280;64213;46.452;16.994;2024-02-16T04:50:43;100425.53;;;2.97;100.00
75629;BME280;64213;46.452;16.994;2024-02-16T04:53:45;100425.69;;;2.91;100.00
75629;BME280;64213;46.452;16.994;2024-02-16T04:56:48;100420.50;;;2.90;100.00
75629;BME280;64213;46.452;16.994;2024-02-16T04:59:52;100416.19;;;2.89;100.00
75629;BME280;64213;46.452;16.994;2024-02-16T05:02:54;100412.66;;;2.90;100.00
75629;BME280;64213;46.452;16.994;2024-02-16T05:05:58;100411.00;;;2.87;100.00
75629;BME280;64213;46.452;16.994;2024-02-16T05:09:01;100413.66;;;2.86;100.00
75629;BME280;64213;46.452;16.994;2024-02-16T05:12:04;100411.19;;;2.79;100.00
75629;BME280;64213;46.452;16.994;2024-02-16T05:15:07;100412.97;;;2.77;100.00
75629;BME280;64213;46.452;16.994;2024-02-16T05:18:11;100408.72;;;2.75;100.00
75629;BME280;64213;46.452;16.994;2024-02-16T05:21:16;100419.16;;;2.75;100.00
75629;BME280;64213;46.452;16.994;2024-02-16T05:24:18;100420.13;;;2.71;100.00
75629;BME280;64213;46.452;16.994;2024-02-16T05:27:21;100418.56;;;2.64;100.00
75629;BME280;64213;46.452;16.994;2024-02-16T05:30:23;100421.22;;;2.62;100.00
75629;BME280;64213;46.452;16.994;2024-02-16T05:33:26;100422.09;;;2.63;100.00
75629;BME280;64213;46.452;16.994;2024-02-16T05:36:29;100420.37;;;2.62;100.00
75629;BME280;64213;46.452;16.994;2024-02-16T05:39:38;100418.66;;;2.61;100.00
75629;BME280;64213;46.452;16.994;2024-02-16T05:42:57;100416.97;;;2.58;100.00
75629;BME280;64213;46.452;16.994;2024-02-16T05:46:19;100424.00;;;2.56;100.00
75629;BME280;64213;46.452;16.994;2024-02-16T05:49:21;100408.34;;;2.56;100.00
75629;BME280;64213;46.452;16.994;2024-02-16T05:52:24;100417.94;;;2.55;100.00
75629;BME280;64213;46.452;16.994;2024-02-16T05:55:27;100422.31;;;2.53;100.00
75629;BME280;64213;46.452;16.994;2024-02-16T05:58:30;100424.16;;;2.50;100.00
75629;BME280;64213;46.452;16.994;2024-02-16T06:01:32;100430.28;;;2.47;100.00
75629;BME280;64213;46.452;16.994;2024-02-16T06:04:34;100431.19;;;2.46;100.00
75629;BME280;64213;46.452;16.994;2024-02-16T06:07:37;100437.37;;;2.42;100.00
75629;BME280;64213;46.452;16.994;2024-02-16T06:10:41;100433.03;;;2.43;100.00
75629;BME280;64213;46.452;16.994;2024-02-16T06:13:44;100435.59;;;2.44;100.00
75629;BME280;64213;46.452;16.994;2024-02-16T06:16:48;100441.66;;;2.46;100.00
75629;BME280;64213;46.452;16.994;2024-02-16T06:19:53;100446.81;;;2.48;100.00
75629;BME280;64213;46.452;16.994;2024-02-16T06:22:56;100445.88;;;2.50;100.00
75629;BME280;64213;46.452;16.994;2024-02-16T06:25:58;100443.22;;;2.52;100.00
75629;BME280;64213;46.452;16.994;2024-02-16T06:29:01;100447.44;;;2.58;100.00
75629;BME280;64213;46.452;16.994;2024-02-16T06:32:03;100459.62;;;2.59;100.00
75629;BME280;64213;46.452;16.994;2024-02-16T06:35:09;100463.03;;;2.62;100.00
75629;BME280;64213;46.452;16.994;2024-02-16T06:38:12;100470.78;;;2.65;100.00
75629;BME280;64213;46.452;16.994;2024-02-16T06:41:14;100468.94;;;2.69;100.00
75629;BME280;64213;46.452;16.994;2024-02-16T06:44:16;100468.78;;;2.75;100.00
75629;BME280;64213;46.452;16.994;2024-02-16T06:47:23;100465.16;;;2.80;100.00
75629;BME280;64213;46.452;16.994;2024-02-16T06:50:28;100471.97;;;2.86;100.00
75629;BME280;64213;46.452;16.994;2024-02-16T06:53:32;100471.81;;;2.94;100.00
75629;BME280;64213;46.452;16.994;2024-02-16T06:56:34;100474.19;;;3.01;100.00
75629;BME280;64213;46.452;16.994;2024-02-16T06:59:38;100484.41;;;3.11;100.00
75629;BME280;64213;46.452;16.994;2024-02-16T07:02:40;100478.94;;;3.20;100.00
75629;BME280;64213;46.452;16.994;2024-02-16T07:05:43;100489.97;;;3.31;100.00
75629;BME280;64213;46.452;16.994;2024-02-16T07:08:45;100488.81;;;3.41;100.00
75629;BME280;64213;46.452;16.994;2024-02-16T07:11:48;100481.47;;;3.54;100.00
75629;BME280;64213;46.452;16.994;2024-02-16T07:14:55;100497.59;;;3.70;100.00
75629;BME280;64213;46.452;16.994;2024-02-16T07:17:57;100487.59;;;4.14;100.00
75629;BME280;64213;46.452;16.994;2024-02-16T07:21:00;100482.19;;;4.47;98.75
75629;BME280;64213;46.452;16.994;2024-02-16T07:24:04;100475.97;;;4.77;96.48
75629;BME280;64213;46.452;16.994;2024-02-16T07:27:06;100482.66;;;5.12;94.75
75629;BME280;64213;46.452;16.994;2024-02-16T07:30:10;100479.47;;;5.76;91.27
75629;BME280;64213;46.452;16.994;2024-02-16T07:33:24;100475.78;;;6.51;88.93
75629;BME280;64213;46.452;16.994;2024-02-16T07:36:27;100467.63;;;7.59;83.73
75629;BME280;64213;46.452;16.994;2024-02-16T07:39:30;100463.69;;;8.63;77.57
75629;BME280;64213;46.452;16.994;2024-02-16T07:42:32;100475.97;;;9.66;73.37
75629;BME280;64213;46.452;16.994;2024-02-16T07:45:35;100471.97;;;10.40;69.72
75629;BME280;64213;46.452;16.994;2024-02-16T07:48:38;100472.78;;;11.02;68.32
75629;BME280;64213;46.452;16.994;2024-02-16T07:51:41;100471.00;;;12.04;66.95
75629;BME280;64213;46.452;16.994;2024-02-16T07:54:43;100479.66;;;12.21;62.93
75629;BME280;64213;46.452;16.994;2024-02-16T07:57:46;100481.59;;;12.46;60.32
75629;BME280;64213;46.452;16.994;2024-02-16T08:00:49;100481.47;;;13.14;59.68
75629;BME280;64213;46.452;16.994;2024-02-16T08:03:52;100479.41;;;13.45;57.26
75629;BME280;64213;46.452;16.994;2024-02-16T08:06:56;100483.56;;;13.49;58.62
75629;BME280;64213;46.452;16.994;2024-02-16T08:09:58;100479.41;;;13.45;57.67
75629;BME280;64213;46.452;16.994;2024-02-16T08:13:00;100478.16;;;13.76;60.59
75629;BME280;64213;46.452;16.994;2024-02-16T08:16:03;100475.75;;;13.97;58.27
75629;BME280;64213;46.452;16.994;2024-02-16T08:19:09;100477.37;;;13.87;56.42
75629;BME280;64213;46.452;16.994;2024-02-16T08:22:11;100476.53;;;13.73;55.79
75629;BME280;64213;46.452;16.994;2024-02-16T08:25:13;100472.91;;;13.75;57.44
75629;BME280;64213;46.452;16.994;2024-02-16T08:28:15;100478.34;;;13.73;54.59
75629;BME280;64213;46.452;16.994;2024-02-16T08:31:18;100471.78;;;13.28;58.89
75629;BME280;64213;46.452;16.994;2024-02-16T08:34:20;100474.34;;;13.02;58.01
75629;BME280;64213;46.452;16.994;2024-02-16T08:37:24;100470.28;;;12.84;59.81
75629;BME280;64213;46.452;16.994;2024-02-16T08:40:26;100477.69;;;12.78;58.90
75629;BME280;64213;46.452;16.994;2024-02-16T08:43:29;100469.28;;;12.45;59.23
75629;BME280;64213;46.452;16.994;2024-02-16T08:46:31;100476.88;;;12.91;58.04
75629;BME280;64213;46.452;16.994;2024-02-16T08:49:34;100474.03;;;13.07;55.93
75629;BME280;64213;46.452;16.994;2024-02-16T08:52:38;100473.66;;;13.25;56.39
75629;BME280;64213;46.452;16.994;2024-02-16T08:55:40;100474.75;;;13.36;56.51
75629;BME280;64213;46.452;16.994;2024-02-16T08:58:43;100476.22;;;13.40;55.67
75629;BME280;64213;46.452;16.994;2024-02-16T09:01:45;100482.62;;;13.76;54.59
75629;BME280;64213;46.452;16.994;2024-02-16T09:04:47;100480.63;;;14.03;54.98
75629;BME280;64213;46.452;16.994;2024-02-16T09:07:50;100474.84;;;14.83;53.04
75629;BME280;64213;46.452;16.994;2024-02-16T09:10:52;100481.03;;;14.59;51.95
75629;BME280;64213;46.452;16.994;2024-02-16T09:13:55;100478.19;;;15.09;50.53
75629;BME280;64213;46.452;16.994;2024-02-16T09:16:57;100478.97;;;14.52;51.80
75629;BME280;64213;46.452;16.994;2024-02-16T09:20:00;100472.56;;;14.89;51.08
75629;BME280;64213;46.452;16.994;2024-02-16T09:23:03;100481.78;;;15.32;49.23
75629;BME280;64213;46.452;16.994;2024-02-16T09:26:06;100480.59;;;15.47;48.83
75629;BME280;64213;46.452;16.994;2024-02-16T09:29:14;100474.81;;;15.98;48.30
75629;BME280;64213;46.452;16.994;2024-02-16T09:32:17;100471.22;;;15.77;48.98
75629;BME280;64213;46.452;16.994;2024-02-16T09:35:19;100473.38;;;15.72;48.58
75629;BME280;64213;46.452;16.994;2024-02-16T09:38:21;100483.25;;;15.36;48.49
75629;BME280;64213;46.452;16.994;2024-02-16T09:41:23;100486.97;;;15.69;47.43
75629;BME280;64213;46.452;16.994;2024-02-16T09:44:26;100476.19;;;15.13;48.88
75629;BME280;64213;46.452;16.994;2024-02-16T09:47:30;100480.38;;;15.62;48.30
75629;BME280;64213;46.452;16.994;2024-02-16T09:50:35;100475.16;;;15.49;48.45
75629;BME280;64213;46.452;16.994;2024-02-16T09:53:37;100472.62;;;15.01;48.94
75629;BME280;64213;46.452;16.994;2024-02-16T09:56:40;100475.59;;;15.31;49.04
75629;BME280;64213;46.452;16.994;2024-02-16T09:59:42;100470.59;;;15.96;47.18
75629;BME280;64213;46.452;16.994;2024-02-16T10:02:46;100471.94;;;15.10;48.62
75629;BME280;64213;46.452;16.994;2024-02-16T10:05:49;100478.25;;;15.20;48.00
75629;BME280;64213;46.452;16.994;2024-02-16T10:08:53;100468.50;;;15.66;47.46
75629;BME280;64213;46.452;16.994;2024-02-16T10:11:55;100469.75;;;15.95;46.91
75629;BME280;64213;46.452;16.994;2024-02-16T10:14:59;100468.41;;;16.01;46.20
75629;BME280;64213;46.452;16.994;2024-02-16T10:18:06;100461.78;;;16.39;44.95
75629;BME280;64213;46.452;16.994;2024-02-16T10:21:09;100455.69;;;16.91;44.23
75629;BME280;64213;46.452;16.994;2024-02-16T10:24:12;100453.66;;;16.84;44.86
75629;BME280;64213;46.452;16.994;2024-02-16T10:27:17;100453.97;;;16.90;43.42
75629;BME280;64213;46.452;16.994;2024-02-16T10:30:22;100452.84;;;18.17;41.61
75629;BME280;64213;46.452;16.994;2024-02-16T10:33:27;100444.09;;;18.25;42.46
75629;BME280;64213;46.452;16.994;2024-02-16T10:36:32;100437.25;;;18.42;40.63
75629;BME280;64213;46.452;16.994;2024-02-16T10:39:35;100438.69;;;17.96;42.95
75629;BME280;64213;46.452;16.994;2024-02-16T10:42:43;100444.03;;;18.46;40.30
75629;BME280;64213;46.452;16.994;2024-02-16T10:45:46;100440.31;;;18.27;40.92
75629;BME280;64213;46.452;16.994;2024-02-16T10:48:49;100432.72;;;18.32;40.58
75629;BME280;64213;46.452;16.994;2024-02-16T10:51:54;100424.03;;;20.20;37.26
75629;BME280;64213;46.452;16.994;2024-02-16T10:55:00;100426.69;;;19.55;38.47
75629;BME280;64213;46.452;16.994;2024-02-16T10:58:03;100431.00;;;19.85;37.00
75629;BME280;64213;46.452;16.994;2024-02-16T11:01:15;100414.97;;;20.21;36.54
75629;BME280;64213;46.452;16.994;2024-02-16T11:04:18;100422.19;;;21.10;35.06
75629;BME280;64213;46.452;16.994;2024-02-16T11:07:38;100420.84;;;19.79;36.68
75629;BME280;64213;46.452;16.994;2024-02-16T11:10:41;100414.84;;;20.76;36.47
75629;BME280;64213;46.452;16.994;2024-02-16T11:13:43;100400.47;;;20.32;37.33
75629;BME280;64213;46.452;16.994;2024-02-16T11:16:46;100410.59;;;19.92;36.64
75629;BME280;64213;46.452;16.994;2024-02-16T11:19:49;100418.88;;;19.34;37.55
75629;BME280;64213;46.452;16.994;2024-02-16T11:22:53;100409.78;;;17.89;39.41
75629;BME280;64213;46.452;16.994;2024-02-16T11:26:05;100401.59;;;18.51;39.02
75629;BME280;64213;46.452;16.994;2024-02-16T11:29:14;100407.44;;;19.32;37.58
75629;BME280;64213;46.452;16.994;2024-02-16T11:32:18;100404.25;;;18.31;38.81
75629;BME280;64213;46.452;16.994;2024-02-16T11:35:21;100400.41;;;19.68;37.18
75629;BME280;64213;46.452;16.994;2024-02-16T11:38:24;100410.41;;;19.76;36.96
75629;BME280;64213;46.452;16.994;2024-02-16T11:41:27;100399.06;;;20.55;35.88
75629;BME280;64213;46.452;16.994;2024-02-16T11:44:34;100397.00;;;21.37;35.02
75629;BME280;64213;46.452;16.994;2024-02-16T11:47:38;100398.31;;;20.89;34.69
75629;BME280;64213;46.452;16.994;2024-02-16T11:50:40;100398.78;;;20.49;35.49
75629;BME280;64213;46.452;16.994;2024-02-16T11:53:43;100388.47;;;20.98;35.55
75629;BME280;64213;46.452;16.994;2024-02-16T11:56:48;100393.44;;;21.10;34.91
75629;BME280;64213;46.452;16.994;2024-02-16T11:59:54;100391.97;;;20.90;35.32
75629;BME280;64213;46.452;16.994;2024-02-16T12:03:01;100397.50;;;18.95;38.27
75629;BME280;64213;46.452;16.994;2024-02-16T12:06:04;100385.44;;;20.39;36.16
75629;BME280;64213;46.452;16.994;2024-02-16T12:09:06;100389.63;;;19.41;37.60
75629;BME280;64213;46.452;16.994;2024-02-16T12:12:11;100390.38;;;20.61;35.56
75629;BME280;64213;46.452;16.994;2024-02-16T12:15:14;100389.84;;;20.12;36.13
75629;BME280;64213;46.452;16.994;2024-02-16T12:18:26;100387.06;;;21.72;33.62
75629;BME280;64213;46.452;16.994;2024-02-16T12:21:30;100370.94;;;22.55;32.54
75629;BME280;64213;46.452;16.994;2024-02-16T12:24:32;100382.25;;;21.23;34.05
75629;BME280;64213;46.452;16.994;2024-02-16T12:27:35;100375.03;;;21.92;33.11
75629;BME280;64213;46.452;16.994;2024-02-16T12:30:37;100374.62;;;21.79;34.00
75629;BME280;64213;46.452;16.994;2024-02-16T12:33:42;100367.25;;;21.39;34.48
75629;BME280;64213;46.452;16.994;2024-02-16T12:36:45;100373.16;;;22.92;31.11
75629;BME280;64213;46.452;16.994;2024-02-16T12:39:52;100365.81;;;22.03;33.52
75629;BME280;64213;46.452;16.994;2024-02-16T12:42:54;100355.09;;;22.52;32.30
75629;BME280;64213;46.452;16.994;2024-02-16T12:45:57;100357.66;;;22.70;32.06
75629;BME280;64213;46.452;16.994;2024-02-16T12:49:01;100367.38;;;23.28;31.85
75629;BME280;64213;46.452;16.994;2024-02-16T12:52:04;100359.34;;;22.95;31.65
75629;BME280;64213;46.452;16.994;2024-02-16T12:55:07;100352.41;;;22.52;32.95
75629;BME280;64213;46.452;16.994;2024-02-16T12:58:12;100347.16;;;23.16;32.14
75629;BME280;64213;46.452;16.994;2024-02-16T13:01:15;100349.25;;;21.13;34.42
75629;BME280;64213;46.452;16.994;2024-02-16T13:04:27;100338.91;;;20.56;35.45
75629;BME280;64213;46.452;16.994;2024-02-16T13:07:34;100341.00;;;21.91;33.24
75629;BME280;64213;46.452;16.994;2024-02-16T13:10:36;100340.06;;;20.54;34.56
75629;BME280;64213;46.452;16.994;2024-02-16T13:13:38;100337.44;;;20.44;34.96
75629;BME280;64213;46.452;16.994;2024-02-16T13:16:41;100336.44;;;20.81;34.58
75629;BME280;64213;46.452;16.994;2024-02-16T13:19:43;100332.56;;;21.70;33.56
75629;BME280;64213;46.452;16.994;2024-02-16T13:22:46;100325.09;;;20.33;35.14
75629;BME280;64213;46.452;16.994;2024-02-16T13:25:48;100328.87;;;21.87;33.27
75629;BME280;64213;46.452;16.994;2024-02-16T13:28:51;100317.09;;;21.88;33.10
75629;BME280;64213;46.452;16.994;2024-02-16T13:31:54;100315.94;;;20.44;35.32
75629;BME280;64213;46.452;16.994;2024-02-16T13:34:57;100322.13;;;19.36;37.15
75629;BME280;64213;46.452;16.994;2024-02-16T13:37:59;100313.84;;;19.57;37.26
75629;BME280;64213;46.452;16.994;2024-02-16T13:41:01;100311.19;;;20.56;35.73
75629;BME280;64213;46.452;16.994;2024-02-16T13:44:03;100317.25;;;20.04;36.17
75629;BME280;64213;46.452;16.994;2024-02-16T13:47:07;100316.69;;;20.72;35.58
75629;BME280;64213;46.452;16.994;2024-02-16T13:50:10;100305.81;;;20.02;36.47
75629;BME280;64213;46.452;16.994;2024-02-16T13:53:13;100309.94;;;20.50;36.11
75629;BME280;64213;46.452;16.994;2024-02-16T13:56:22;100310.59;;;20.88;35.42
75629;BME280;64213;46.452;16.994;2024-02-16T13:59:24;100304.09;;;21.33;34.50
75629;BME280;64213;46.452;16.994;2024-02-16T14:02:27;100311.59;;;20.87;35.16
75629;BME280;64213;46.452;16.994;2024-02-16T14:05:29;100311.37;;;19.73;37.49
75629;BME280;64213;46.452;16.994;2024-02-16T14:08:32;100307.03;;;19.90;37.21
75629;BME280;64213;46.452;16.994;2024-02-16T14:11:35;100302.50;;;20.44;36.34
75629;BME280;64213;46.452;16.994;2024-02-16T14:14:38;100301.66;;;19.72;37.45
75629;BME280;64213;46.452;16.994;2024-02-16T14:17:43;100302.03;;;20.13;36.65
75629;BME280;64213;46.452;16.994;2024-02-16T14:20:46;100298.06;;;19.99;36.93
75629;BME280;64213;46.452;16.994;2024-02-16T14:23:48;100302.50;;;18.98;38.69
75629;BME280;64213;46.452;16.994;2024-02-16T14:26:51;100297.50;;;18.75;39.12
75629;BME280;64213;46.452;16.994;2024-02-16T14:29:57;100297.56;;;19.68;37.88
75629;BME280;64213;46.452;16.994;2024-02-16T14:33:00;100291.03;;;19.43;37.85
75629;BME280;64213;46.452;16.994;2024-02-16T14:36:03;100295.94;;;19.20;38.57
75629;BME280;64213;46.452;16.994;2024-02-16T14:39:05;100295.25;;;18.61;40.37
75629;BME280;64213;46.452;16.994;2024-02-16T14:42:08;100293.25;;;18.73;39.71
75629;BME280;64213;46.452;16.994;2024-02-16T14:45:11;100296.53;;;18.76;40.09
75629;BME280;64213;46.452;16.994;2024-02-16T14:48:22;100292.97;;;18.76;40.10
75629;BME280;64213;46.452;16.994;2024-02-16T14:51:25;100290.19;;;18.58;40.57
75629;BME280;64213;46.452;16.994;2024-02-16T14:54:28;100280.34;;;17.91;42.12
75629;BME280;64213;46.452;16.994;2024-02-16T14:57:31;100292.25;;;17.17;44.34
75629;BME280;64213;46.452;16.994;2024-02-16T15:00:34;100291.19;;;16.57;44.95
75629;BME280;64213;46.452;16.994;2024-02-16T15:03:38;100289.53;;;16.23;46.93
75629;BME280;64213;46.452;16.994;2024-02-16T15:06:42;100285.38;;;15.98;47.24
75629;BME280;64213;46.452;16.994;2024-02-16T15:09:45;100293.47;;;15.53;47.67
75629;BME280;64213;46.452;16.994;2024-02-16T15:12:47;100288.63;;;15.58;47.67
75629;BME280;64213;46.452;16.994;2024-02-16T15:15:50;100294.44;;;15.52;47.92
75629;BME280;64213;46.452;16.994;2024-02-16T15:18:53;100288.28;;;15.41;49.04
75629;BME280;64213;46.452;16.994;2024-02-16T15:21:55;100289.03;;;15.09;49.79
75629;BME280;64213;46.452;16.994;2024-02-16T15:24:58;100296.91;;;15.10;49.29
75629;BME280;64213;46.452;16.994;2024-02-16T15:28:01;100291.94;;;14.95;50.15
75629;BME280;64213;46.452;16.994;2024-02-16T15:31:04;100297.38;;;14.82;50.42
75629;BME280;64213;46.452;16.994;2024-02-16T15:34:07;100304.84;;;14.65;51.35
75629;BME280;64213;46.452;16.994;2024-02-16T15:37:10;100302.72;;;14.47;52.21
75629;BME280;64213;46.452;16.994;2024-02-16T15:40:13;100302.56;;;14.37;52.76
75629;BME280;64213;46.452;16.994;2024-02-16T15:43:15;100303.25;;;14.28;53.59
75629;BME280;64213;46.452;16.994;2024-02-16T15:46:18;100310.34;;;14.16;54.36
75629;BME280;64213;46.452;16.994;2024-02-16T15:49:20;100305.03;;;13.92;54.73
75629;BME280;64213;46.452;16.994;2024-02-16T15:52:23;100307.09;;;13.88;54.92
75629;BME280;64213;46.452;16.994;2024-02-16T15:55:25;100309.03;;;13.73;55.99